Time;durP1;ratioP1;P1;durP2;ratioP2;P2;SDS_P1;SDS_P2;PMS_P1;PMS_P2;Temp;Humidity;BMP_temperature;BMP_pressure;BME280_temperature;BME280_humidity;BME280_pressure;Samples;Min_cycle;Max_cycle;Signal;HPM_P1;HPM_P2
2023/08/05 00:00:39;0.00;0.00;0.62;0.00;0.00;0.62;2.00;1.60;;;28.90;30.80;;;;;;2267757;61;20364;-62
2023/08/05 00:03:24;0.00;0.00;0.62;0.00;0.00;0.62;3.00;2.00;;;28.90;30.80;;;;;;2268460;61;20389;-61
2023/08/05 00:06:10;0.00;0.00;0.62;0.00;0.00;0.62;2.70;1.80;;;28.90;30.80;;;;;;2267841;61;20405;-61
2023/08/05 00:08:55;0.00;0.00;0.62;0.00;0.00;0.62;3.07;1.60;;;28.90;30.80;;;;;;2267862;61;20382;-63
2023/08/05 00:11:39;0.00;0.00;0.62;0.00;0.00;0.62;2.40;1.53;;;28.90;30.80;;;;;;2268479;61;20412;-61
2023/08/05 00:14:24;0.00;0.00;0.62;0.00;0.00;0.62;2.27;1.87;;;28.80;30.70;;;;;;2267372;61;20414;-62
2023/08/05 00:17:10;0.00;0.00;0.62;0.00;0.00;0.62;2.00;1.70;;;28.90;30.80;;;;;;2268442;61;20844;-62
2023/08/05 00:19:55;0.00;0.00;0.62;0.00;0.00;0.62;2.30;2.00;;;28.80;30.70;;;;;;2268288;61;20391;-61
2023/08/05 00:22:40;0.00;0.00;0.62;0.00;0.00;0.62;3.13;2.20;;;28.80;30.70;;;;;;2267547;61;20370;-60
2023/08/05 00:25:25;0.00;0.00;0.62;0.00;0.00;0.62;2.47;1.60;;;28.80;30.70;;;;;;2268219;61;20453;-62
2023/08/05 00:28:09;0.00;0.00;0.62;0.00;0.00;0.62;3.40;1.80;;;28.80;30.70;;;;;;2267853;61;20934;-61
2023/08/05 00:30:54;0.00;0.00;0.62;0.00;0.00;0.62;2.60;1.53;;;28.80;30.70;;;;;;2268098;61;20911;-61
2023/08/05 00:33:40;0.00;0.00;0.62;0.00;0.00;0.62;2.20;1.77;;;28.80;30.70;;;;;;2265328;61;20386;-61
2023/08/05 00:36:26;0.00;0.00;0.62;0.00;0.00;0.62;2.80;1.70;;;28.80;30.70;;;;;;2267575;61;20371;-60
2023/08/05 00:39:10;0.00;0.00;0.62;0.00;0.00;0.62;1.90;1.30;;;28.80;30.70;;;;;;2267879;61;20429;-61
2023/08/05 00:41:55;0.00;0.00;0.62;0.00;0.00;0.62;3.13;1.80;;;28.80;30.70;;;;;;2268283;61;20603;-61
2023/08/05 00:44:41;0.00;0.00;0.62;0.00;0.00;0.62;2.07;1.50;;;28.80;30.70;;;;;;2267622;61;20385;-62
2023/08/05 00:47:26;0.00;0.00;0.62;0.00;0.00;0.62;2.70;1.77;;;28.80;30.70;;;;;;2268459;61;20367;-62
2023/08/05 00:50:13;0.00;0.00;0.62;0.00;0.00;0.62;3.30;1.97;;;28.80;30.70;;;;;;2267737;61;20379;-62
2023/08/05 00:52:59;0.00;0.00;0.62;0.00;0.00;0.62;2.60;1.97;;;28.80;30.70;;;;;;2268304;61;20368;-59
2023/08/05 00:55:44;0.00;0.00;0.62;0.00;0.00;0.62;2.50;1.60;;;28.80;31.40;;;;;;2265024;61;20363;-61
2023/08/05 00:58:31;0.00;0.00;0.62;0.00;0.00;0.62;3.30;2.13;;;28.80;30.70;;;;;;2267076;61;20433;-61
2023/08/05 01:01:16;0.00;0.00;0.62;0.00;0.00;0.62;2.47;1.90;;;28.80;30.70;;;;;;2264967;61;20413;-62
2023/08/05 01:04:01;0.00;0.00;0.62;0.00;0.00;0.62;2.40;1.50;;;28.80;30.70;;;;;;2268052;61;20862;-61
2023/08/05 01:06:50;0.00;0.00;0.62;0.00;0.00;0.62;2.33;1.63;;;28.80;31.40;;;;;;2267667;61;20359;-62
2023/08/05 01:09:34;0.00;0.00;0.62;0.00;0.00;0.62;1.90;1.30;;;28.80;30.70;;;;;;2267998;61;20524;-61
2023/08/05 01:12:19;0.00;0.00;0.62;0.00;0.00;0.62;2.00;1.70;;;28.80;30.70;;;;;;2267998;61;20413;-61
2023/08/05 01:15:06;0.00;0.00;0.62;0.00;0.00;0.62;2.20;1.40;;;28.70;30.60;;;;;;2264924;61;20363;-60
2023/08/05 01:17:53;0.00;0.00;0.62;0.00;0.00;0.62;2.90;1.90;;;28.70;30.60;;;;;;2268226;61;20422;-60
2023/08/05 01:20:42;0.00;0.00;0.62;0.00;0.00;0.62;2.37;1.60;;;28.70;30.60;;;;;;2264298;61;20459;-61
2023/08/05 01:23:35;0.00;0.00;0.62;0.00;0.00;0.62;2.17;1.47;;;28.70;30.60;;;;;;2268157;61;20379;-61
2023/08/05 01:26:22;0.00;0.00;0.62;0.00;0.00;0.62;2.30;1.60;;;28.70;30.60;;;;;;2268162;61;20412;-59
2023/08/05 01:29:08;0.00;0.00;0.62;0.00;0.00;0.62;2.47;1.70;;;28.70;30.60;;;;;;2267795;61;20410;-61
2023/08/05 01:31:54;0.00;0.00;0.62;0.00;0.00;0.62;1.90;1.70;;;28.70;30.60;;;;;;2265423;61;20363;-60
2023/08/05 01:34:39;0.00;0.00;0.62;0.00;0.00;0.62;2.00;1.60;;;28.70;30.60;;;;;;2268658;61;20997;-60
2023/08/05 01:37:24;0.00;0.00;0.62;0.00;0.00;0.62;2.07;1.50;;;28.70;30.60;;;;;;2268791;61;20876;-62
2023/08/05 01:40:11;0.00;0.00;0.62;0.00;0.00;0.62;2.27;1.47;;;28.70;30.60;;;;;;2268526;61;20387;-61
2023/08/05 01:42:58;0.00;0.00;0.62;0.00;0.00;0.62;2.83;1.70;;;28.70;30.60;;;;;;2268298;61;20760;-59
2023/08/05 01:45:43;0.00;0.00;0.62;0.00;0.00;0.62;2.83;1.53;;;28.70;30.60;;;;;;2268635;61;20389;-61
2023/08/05 01:48:28;0.00;0.00;0.62;0.00;0.00;0.62;1.97;1.43;;;28.70;30.60;;;;;;2265091;61;20383;-61
2023/08/05 01:51:12;0.00;0.00;0.62;0.00;0.00;0.62;1.80;1.33;;;28.70;30.60;;;;;;2262188;61;20363;-59
2023/08/05 01:53:57;0.00;0.00;0.62;0.00;0.00;0.62;2.27;1.70;;;28.70;30.50;;;;;;2268760;61;20360;-62
2023/08/05 01:56:42;0.00;0.00;0.62;0.00;0.00;0.62;2.60;1.40;;;28.70;30.60;;;;;;2268388;61;20383;-60
2023/08/05 01:59:27;0.00;0.00;0.62;0.00;0.00;0.62;1.90;1.40;;;28.60;30.50;;;;;;2264891;61;20386;-61
2023/08/05 02:02:12;0.00;0.00;0.62;0.00;0.00;0.62;2.33;1.53;;;28.70;30.50;;;;;;2265514;61;20436;-62
2023/08/05 02:04:57;0.00;0.00;0.62;0.00;0.00;0.62;2.27;1.40;;;28.70;30.50;;;;;;2264826;61;20415;-58
2023/08/05 02:07:41;0.00;0.00;0.62;0.00;0.00;0.62;1.80;1.40;;;28.60;30.50;;;;;;2265316;61;20371;-61
2023/08/05 02:10:26;0.00;0.00;0.62;0.00;0.00;0.62;1.70;1.30;;;28.60;30.50;;;;;;2268398;61;20406;-62
2023/08/05 02:13:10;0.00;0.00;0.62;0.00;0.00;0.62;2.67;1.70;;;28.60;30.50;;;;;;2264836;61;20390;-61
2023/08/05 02:15:57;0.00;0.00;0.62;0.00;0.00;0.62;2.13;1.33;;;28.60;30.50;;;;;;2265432;61;20371;-62
2023/08/05 02:18:41;0.00;0.00;0.62;0.00;0.00;0.62;2.63;1.60;;;28.60;30.50;;;;;;2265018;61;20399;-62
2023/08/05 02:21:26;0.00;0.00;0.62;0.00;0.00;0.62;3.10;1.60;;;28.60;30.50;;;;;;2268158;61;20455;-62
2023/08/05 02:24:11;0.00;0.00;0.62;0.00;0.00;0.62;2.00;1.37;;;28.60;30.50;;;;;;2268654;61;20391;-61
2023/08/05 02:26:55;0.00;0.00;0.62;0.00;0.00;0.62;1.67;1.03;;;28.60;30.50;;;;;;2267731;61;20354;-62
2023/08/05 02:29:40;0.00;0.00;0.62;0.00;0.00;0.62;2.10;1.33;;;28.60;30.50;;;;;;2268161;61;20391;-60
2023/08/05 02:32:26;0.00;0.00;0.62;0.00;0.00;0.62;1.80;1.57;;;28.60;30.50;;;;;;2268671;61;20367;-61
2023/08/05 02:35:11;0.00;0.00;0.62;0.00;0.00;0.62;2.00;1.20;;;28.60;30.50;;;;;;2264792;61;20367;-59
2023/08/05 02:37:56;0.00;0.00;0.62;0.00;0.00;0.62;2.00;1.40;;;28.60;30.50;;;;;;2268521;61;20425;-61
2023/08/05 02:40:41;0.00;0.00;0.62;0.00;0.00;0.62;1.80;1.30;;;28.60;30.50;;;;;;2268402;61;20369;-60
2023/08/05 02:43:26;0.00;0.00;0.62;0.00;0.00;0.62;1.70;1.10;;;28.60;30.50;;;;;;2264924;61;20367;-62
2023/08/05 02:46:10;0.00;0.00;0.62;0.00;0.00;0.62;1.77;1.40;;;28.60;30.50;;;;;;2265403;61;20367;-60
2023/08/05 02:48:56;0.00;0.00;0.62;0.00;0.00;0.62;2.73;1.20;;;28.60;30.50;;;;;;2264221;61;20882;-62
2023/08/05 02:51:41;0.00;0.00;0.62;0.00;0.00;0.62;1.60;1.30;;;28.60;30.40;;;;;;2268565;61;20363;-61
2023/08/05 02:54:26;0.00;0.00;0.62;0.00;0.00;0.62;1.70;1.40;;;28.50;30.40;;;;;;2265125;61;20366;-65
2023/08/05 02:57:11;0.00;0.00;0.62;0.00;0.00;0.62;1.53;1.27;;;28.60;30.40;;;;;;2264605;61;20383;-61
2023/08/05 02:59:56;0.00;0.00;0.62;0.00;0.00;0.62;2.07;1.40;;;28.50;30.40;;;;;;2267256;61;20500;-60
2023/08/05 03:02:40;0.00;0.00;0.62;0.00;0.00;0.62;1.80;1.20;;;28.50;30.40;;;;;;2264564;61;20358;-62
2023/08/05 03:05:28;0.00;0.00;0.62;0.00;0.00;0.62;1.80;1.40;;;28.50;30.40;;;;;;2264039;61;20385;-62
2023/08/05 03:08:13;0.00;0.00;0.62;0.00;0.00;0.62;3.33;1.60;;;28.50;30.40;;;;;;2264230;61;20363;-62
2023/08/05 03:10:58;0.00;0.00;0.62;0.00;0.00;0.62;1.70;1.23;;;28.50;30.40;;;;;;2264161;61;20406;-61
2023/08/05 03:13:44;0.00;0.00;0.62;0.00;0.00;0.62;2.13;1.53;;;28.50;30.40;;;;;;2265285;61;20367;-61
2023/08/05 03:16:29;0.00;0.00;0.62;0.00;0.00;0.62;1.87;1.33;;;28.50;30.40;;;;;;2268238;61;20883;-61
2023/08/05 03:19:21;0.00;0.00;0.62;0.00;0.00;0.62;2.07;1.33;;;28.50;30.40;;;;;;2264292;61;20831;-60
2023/08/05 03:22:08;0.00;0.00;0.62;0.00;0.00;0.62;1.70;1.30;;;28.50;30.40;;;;;;2265304;61;20409;-60
2023/08/05 03:24:59;0.00;0.00;0.62;0.00;0.00;0.62;1.73;1.30;;;28.50;30.40;;;;;;2265220;61;20359;-62
2023/08/05 03:27:44;0.00;0.00;0.62;0.00;0.00;0.62;1.60;1.07;;;28.50;30.40;;;;;;2264477;61;20366;-61
2023/08/05 03:30:29;0.00;0.00;0.62;0.00;0.00;0.62;2.57;1.40;;;28.50;30.40;;;;;;2268052;61;20429;-59
2023/08/05 03:33:15;0.00;0.00;0.62;0.00;0.00;0.62;2.20;1.40;;;28.50;30.40;;;;;;2267664;61;20350;-61
2023/08/05 03:36:01;0.00;0.00;0.62;0.00;0.00;0.62;2.33;1.40;;;28.50;30.40;;;;;;2267898;61;20791;-61
2023/08/05 03:38:48;0.00;0.00;0.62;0.00;0.00;0.62;2.50;1.50;;;28.50;30.40;;;;;;2264378;61;20413;-60
2023/08/05 03:41:34;0.00;0.00;0.62;0.00;0.00;0.62;1.60;1.20;;;28.40;30.30;;;;;;2263922;61;20443;-61
2023/08/05 03:44:19;0.00;0.00;0.62;0.00;0.00;0.62;1.73;1.43;;;28.50;30.40;;;;;;2265074;61;20398;-61
2023/08/05 03:47:04;0.00;0.00;0.62;0.00;0.00;0.62;1.87;1.40;;;28.40;30.30;;;;;;2265416;61;20891;-63
2023/08/05 03:49:48;0.00;0.00;0.62;0.00;0.00;0.62;2.77;1.60;;;28.40;30.30;;;;;;2266971;61;20383;-62
2023/08/05 03:52:33;0.00;0.00;0.62;0.00;0.00;0.62;2.87;1.30;;;28.40;30.30;;;;;;2268470;61;20358;-60
2023/08/05 03:55:19;0.00;0.00;0.62;0.00;0.00;0.62;2.00;1.30;;;28.40;30.30;;;;;;2268174;61;20764;-61
2023/08/05 03:58:07;0.00;0.00;0.62;0.00;0.00;0.62;2.37;1.27;;;28.40;30.30;;;;;;2265085;61;20403;-62
2023/08/05 04:00:52;0.00;0.00;0.62;0.00;0.00;0.62;1.63;1.23;;;28.40;30.30;;;;;;2265046;61;20401;-61
2023/08/05 04:03:37;0.00;0.00;0.62;0.00;0.00;0.62;2.43;1.60;;;28.40;30.30;;;;;;2264293;61;20366;-61
2023/08/05 04:06:22;0.00;0.00;0.62;0.00;0.00;0.62;1.60;1.40;;;28.40;30.30;;;;;;2264887;61;20359;-61
2023/08/05 04:09:07;0.00;0.00;0.62;0.00;0.00;0.62;1.80;1.50;;;28.40;30.40;;;;;;2264791;61;20516;-61
2023/08/05 04:11:53;0.00;0.00;0.62;0.00;0.00;0.62;1.60;1.10;;;28.40;30.30;;;;;;2264433;61;20875;-60
2023/08/05 04:14:39;0.00;0.00;0.62;0.00;0.00;0.62;1.97;1.30;;;28.40;30.40;;;;;;2268256;61;20399;-61
2023/08/05 04:17:24;0.00;0.00;0.62;0.00;0.00;0.62;1.93;1.30;;;28.40;30.40;;;;;;2264814;61;20421;-60
2023/08/05 04:20:11;0.00;0.00;0.62;0.00;0.00;0.62;2.17;1.40;;;28.40;30.30;;;;;;2264791;61;20932;-59
2023/08/05 04:22:56;0.00;0.00;0.62;0.00;0.00;0.62;2.17;1.53;;;28.40;30.40;;;;;;2264946;61;20393;-62
2023/08/05 04:25:43;0.00;0.00;0.62;0.00;0.00;0.62;2.30;1.70;;;28.40;30.40;;;;;;2267708;61;20367;-62
2023/08/05 04:28:30;0.00;0.00;0.62;0.00;0.00;0.62;1.77;1.47;;;28.40;30.40;;;;;;2267901;61;20414;-65
2023/08/05 04:31:14;0.00;0.00;0.62;0.00;0.00;0.62;1.80;1.50;;;28.40;30.40;;;;;;2268232;61;20429;-62
2023/08/05 04:33:59;0.00;0.00;0.62;0.00;0.00;0.62;2.30;1.60;;;28.40;30.40;;;;;;2267839;61;20804;-61
2023/08/05 04:36:49;0.00;0.00;0.62;0.00;0.00;0.62;2.37;1.60;;;28.40;30.40;;;;;;2268247;61;20408;-62
2023/08/05 04:39:33;0.00;0.00;0.62;0.00;0.00;0.62;1.83;1.37;;;28.40;30.40;;;;;;2267573;61;20589;-62
2023/08/05 04:42:18;0.00;0.00;0.62;0.00;0.00;0.62;2.40;1.77;;;28.40;30.40;;;;;;2268322;61;20366;-62
2023/08/05 04:45:06;0.00;0.00;0.62;0.00;0.00;0.62;1.87;1.40;;;28.40;30.40;;;;;;2268019;61;20361;-62
2023/08/05 04:47:51;0.00;0.00;0.62;0.00;0.00;0.62;1.90;1.40;;;28.40;30.40;;;;;;2267856;61;21006;-61
2023/08/05 04:50:37;0.00;0.00;0.62;0.00;0.00;0.62;2.30;1.60;;;28.40;30.50;;;;;;2267809;61;20367;-60
2023/08/05 04:53:22;0.00;0.00;0.62;0.00;0.00;0.62;2.33;1.37;;;28.40;30.40;;;;;;2268457;61;20390;-62
2023/08/05 04:56:07;0.00;0.00;0.62;0.00;0.00;0.62;1.57;1.30;;;28.40;30.40;;;;;;2267744;61;20446;-60
2023/08/05 04:58:51;0.00;0.00;0.62;0.00;0.00;0.62;3.10;1.77;;;28.40;30.40;;;;;;2264399;61;20386;-61
2023/08/05 05:01:37;0.00;0.00;0.62;0.00;0.00;0.62;1.90;1.50;;;28.30;30.40;;;;;;2268682;61;20377;-59
2023/08/05 05:04:22;0.00;0.00;0.62;0.00;0.00;0.62;1.63;1.20;;;28.40;30.40;;;;;;2268541;61;20899;-61
2023/08/05 05:07:06;0.00;0.00;0.62;0.00;0.00;0.62;1.60;1.10;;;28.30;30.30;;;;;;2268713;61;20898;-62
2023/08/05 05:09:51;0.00;0.00;0.62;0.00;0.00;0.62;2.10;1.33;;;28.30;30.40;;;;;;2267924;61;21209;-60
2023/08/05 05:12:36;0.00;0.00;0.62;0.00;0.00;0.62;1.93;1.50;;;28.30;30.40;;;;;;2268897;61;20447;-59
2023/08/05 05:15:21;0.00;0.00;0.62;0.00;0.00;0.62;2.10;1.20;;;28.30;30.40;;;;;;2268866;61;20894;-62
2023/08/05 05:18:08;0.00;0.00;0.62;0.00;0.00;0.62;1.90;1.20;;;28.30;31.00;;;;;;2268080;61;20807;-61
2023/08/05 05:20:54;0.00;0.00;0.62;0.00;0.00;0.62;2.23;1.67;;;28.30;30.40;;;;;;2268715;61;20367;-60
2023/08/05 05:23:39;0.00;0.00;0.62;0.00;0.00;0.62;2.07;1.40;;;28.30;31.00;;;;;;2268677;61;20775;-60
2023/08/05 05:26:24;0.00;0.00;0.62;0.00;0.00;0.62;2.10;1.60;;;28.30;30.40;;;;;;2265117;61;20363;-61
2023/08/05 05:29:09;0.00;0.00;0.62;0.00;0.00;0.62;3.00;1.67;;;28.30;30.40;;;;;;2268321;61;20433;-60
2023/08/05 05:31:54;0.00;0.00;0.62;0.00;0.00;0.62;3.30;1.50;;;28.30;30.40;;;;;;2268194;61;20395;-61
2023/08/05 05:34:40;0.00;0.00;0.62;0.00;0.00;0.62;1.70;1.60;;;28.30;30.40;;;;;;2268589;61;20418;-61
2023/08/05 05:37:24;0.00;0.00;0.62;0.00;0.00;0.62;2.17;1.57;;;28.30;30.40;;;;;;2268774;61;20387;-61
2023/08/05 05:40:10;0.00;0.00;0.62;0.00;0.00;0.62;2.00;1.57;;;28.30;30.40;;;;;;2267573;61;20871;-59
2023/08/05 05:42:54;0.00;0.00;0.62;0.00;0.00;0.62;2.67;1.77;;;28.30;30.40;;;;;;2268805;61;20444;-61
2023/08/05 05:45:40;0.00;0.00;0.62;0.00;0.00;0.62;2.20;1.83;;;28.30;30.40;;;;;;2268722;61;20775;-62
2023/08/05 05:48:25;0.00;0.00;0.62;0.00;0.00;0.62;2.07;1.70;;;28.30;30.40;;;;;;2267771;61;20386;-62
2023/08/05 05:51:11;0.00;0.00;0.62;0.00;0.00;0.62;5.00;1.90;;;28.30;30.40;;;;;;2268602;61;20363;-67
2023/08/05 05:53:57;0.00;0.00;0.62;0.00;0.00;0.62;1.90;1.60;;;28.30;30.40;;;;;;2268265;61;20420;-61
2023/08/05 05:56:43;0.00;0.00;0.62;0.00;0.00;0.62;2.50;2.20;;;28.30;30.40;;;;;;2268668;61;20414;-65
2023/08/05 05:59:28;0.00;0.00;0.62;0.00;0.00;0.62;3.30;1.60;;;28.30;30.40;;;;;;2268210;61;20465;-62
2023/08/05 06:02:13;0.00;0.00;0.62;0.00;0.00;0.62;2.20;1.67;;;28.30;30.50;;;;;;2267832;61;20417;-59
2023/08/05 06:04:58;0.00;0.00;0.62;0.00;0.00;0.62;2.63;1.70;;;28.30;30.50;;;;;;2268676;61;20367;-60
2023/08/05 06:07:44;0.00;0.00;0.62;0.00;0.00;0.62;2.00;1.63;;;28.30;30.40;;;;;;2268581;61;20366;-60
2023/08/05 06:10:29;0.00;0.00;0.62;0.00;0.00;0.62;2.70;1.63;;;28.30;30.50;;;;;;2267750;61;20844;-63
2023/08/05 06:13:14;0.00;0.00;0.62;0.00;0.00;0.62;3.37;1.93;;;28.20;30.40;;;;;;2268413;61;20553;-58
2023/08/05 06:15:58;0.00;0.00;0.62;0.00;0.00;0.62;2.23;2.00;;;28.20;30.40;;;;;;2268123;61;20450;-62
2023/08/05 06:18:43;0.00;0.00;0.62;0.00;0.00;0.62;2.77;2.10;;;28.30;30.50;;;;;;2264841;61;20394;-61
2023/08/05 06:21:27;0.00;0.00;0.62;0.00;0.00;0.62;2.70;2.30;;;28.20;30.40;;;;;;2268589;61;20376;-61
2023/08/05 06:24:13;0.00;0.00;0.62;0.00;0.00;0.62;2.77;2.23;;;28.20;30.50;;;;;;2267419;61;20796;-61
2023/08/05 06:26:58;0.00;0.00;0.62;0.00;0.00;0.62;2.10;1.90;;;28.20;30.50;;;;;;2268116;61;20941;-59
2023/08/05 06:29:42;0.00;0.00;0.62;0.00;0.00;0.62;2.77;2.23;;;28.20;30.50;;;;;;2267487;61;20383;-60
2023/08/05 06:32:27;0.00;0.00;0.62;0.00;0.00;0.62;2.20;1.63;;;28.20;30.50;;;;;;2267373;61;20351;-61
2023/08/05 06:35:12;0.00;0.00;0.62;0.00;0.00;0.62;2.67;2.10;;;28.20;30.50;;;;;;2267917;61;20938;-62
2023/08/05 06:37:56;0.00;0.00;0.62;0.00;0.00;0.62;2.50;1.80;;;28.20;30.50;;;;;;2267708;61;20379;-61
2023/08/05 06:40:44;0.00;0.00;0.62;0.00;0.00;0.62;2.60;2.10;;;28.20;30.50;;;;;;2268101;61;20901;-62
2023/08/05 06:43:29;0.00;0.00;0.62;0.00;0.00;0.62;2.23;1.63;;;28.20;30.60;;;;;;2268263;61;20368;-67
2023/08/05 06:46:14;0.00;0.00;0.62;0.00;0.00;0.62;3.30;2.17;;;28.20;30.60;;;;;;2267677;61;20763;-62
2023/08/05 06:48:59;0.00;0.00;0.62;0.00;0.00;0.62;2.43;1.83;;;28.20;30.60;;;;;;2267831;61;20773;-64
2023/08/05 06:51:44;0.00;0.00;0.62;0.00;0.00;0.62;2.70;2.20;;;28.20;30.60;;;;;;2268356;61;20363;-60
2023/08/05 06:54:28;0.00;0.00;0.62;0.00;0.00;0.62;2.70;2.20;;;28.20;30.60;;;;;;2268018;61;20410;-62
2023/08/05 06:57:15;0.00;0.00;0.62;0.00;0.00;0.62;2.70;2.00;;;28.20;30.60;;;;;;2268345;61;20418;-61
2023/08/05 06:59:59;0.00;0.00;0.62;0.00;0.00;0.62;2.50;2.10;;;28.20;30.60;;;;;;2267680;61;20390;-61
2023/08/05 07:02:44;0.00;0.00;0.62;0.00;0.00;0.62;2.63;2.40;;;28.20;31.30;;;;;;2268052;61;20362;-61
2023/08/05 07:05:29;0.00;0.00;0.62;0.00;0.00;0.62;2.60;1.90;;;28.20;30.60;;;;;;2268234;61;20351;-60
2023/08/05 07:08:14;0.00;0.00;0.62;0.00;0.00;0.62;2.60;2.10;;;28.20;30.60;;;;;;2267268;61;20367;-60
2023/08/05 07:10:59;0.00;0.00;0.62;0.00;0.00;0.62;2.50;1.90;;;28.20;30.60;;;;;;2268297;61;20372;-61
2023/08/05 07:13:45;0.00;0.00;0.62;0.00;0.00;0.62;2.30;2.10;;;28.20;30.60;;;;;;2268203;61;20363;-62
2023/08/05 07:16:29;0.00;0.00;0.62;0.00;0.00;0.62;2.40;1.70;;;28.20;30.60;;;;;;2267751;61;20438;-61
2023/08/05 07:19:14;0.00;0.00;0.62;0.00;0.00;0.62;2.47;2.00;;;28.20;30.60;;;;;;2267539;61;20402;-60
2023/08/05 07:21:59;0.00;0.00;0.62;0.00;0.00;0.62;3.03;2.40;;;28.20;30.60;;;;;;2268382;61;20922;-61
2023/08/05 07:24:43;0.00;0.00;0.62;0.00;0.00;0.62;2.13;1.73;;;28.20;30.60;;;;;;2266509;61;20362;-64
2023/08/05 07:27:28;0.00;0.00;0.62;0.00;0.00;0.62;2.90;2.20;;;28.20;30.60;;;;;;2268317;61;20421;-61
2023/08/05 07:30:15;0.00;0.00;0.62;0.00;0.00;0.62;4.13;2.73;;;28.20;30.60;;;;;;2267342;61;20436;-62
2023/08/05 07:33:00;0.00;0.00;0.62;0.00;0.00;0.62;3.60;2.37;;;28.20;30.60;;;;;;2268153;61;20399;-61
2023/08/05 07:35:45;0.00;0.00;0.62;0.00;0.00;0.62;2.50;1.97;;;28.20;30.60;;;;;;2268329;61;20447;-61
2023/08/05 07:38:30;0.00;0.00;0.62;0.00;0.00;0.62;2.53;2.03;;;28.20;30.60;;;;;;2265570;61;20391;-63
2023/08/05 07:41:15;0.00;0.00;0.62;0.00;0.00;0.62;2.87;2.40;;;28.20;30.60;;;;;;2267970;61;20918;-61
2023/08/05 07:44:01;0.00;0.00;0.62;0.00;0.00;0.62;2.63;2.10;;;28.20;30.60;;;;;;2264907;61;20782;-61
2023/08/05 07:46:47;0.00;0.00;0.62;0.00;0.00;0.62;2.30;1.90;;;28.20;30.60;;;;;;2264462;61;20402;-61
2023/08/05 07:49:32;0.00;0.00;0.62;0.00;0.00;0.62;2.77;2.20;;;28.20;30.60;;;;;;2266396;61;20382;-61
2023/08/05 07:52:17;0.00;0.00;0.62;0.00;0.00;0.62;3.30;2.57;;;28.20;30.60;;;;;;2267596;61;20359;-63
2023/08/05 07:55:03;0.00;0.00;0.62;0.00;0.00;0.62;2.73;2.37;;;28.20;30.60;;;;;;2268253;61;20363;-61
2023/08/05 07:57:47;0.00;0.00;0.62;0.00;0.00;0.62;2.87;2.07;;;28.20;31.30;;;;;;2264905;61;20902;-62
2023/08/05 08:00:33;0.00;0.00;0.62;0.00;0.00;0.62;2.83;2.40;;;28.20;30.60;;;;;;2265679;61;20354;-60
2023/08/05 08:03:19;0.00;0.00;0.62;0.00;0.00;0.62;1.90;1.60;;;28.20;30.60;;;;;;2268138;61;20359;-61
2023/08/05 08:06:04;0.00;0.00;0.62;0.00;0.00;0.62;3.30;1.97;;;28.20;30.70;;;;;;2268105;61;21024;-62
2023/08/05 08:08:48;0.00;0.00;0.62;0.00;0.00;0.62;4.10;1.93;;;28.20;30.70;;;;;;2266214;61;20378;-68
2023/08/05 08:11:33;0.00;0.00;0.62;0.00;0.00;0.62;2.80;2.20;;;28.20;30.70;;;;;;2268188;61;20442;-63
2023/08/05 08:14:18;0.00;0.00;0.62;0.00;0.00;0.62;2.70;2.10;;;28.20;30.70;;;;;;2267576;61;20409;-61
2023/08/05 08:17:03;0.00;0.00;0.62;0.00;0.00;0.62;2.23;2.03;;;28.20;30.70;;;;;;2268184;61;20362;-60
2023/08/05 08:19:50;0.00;0.00;0.62;0.00;0.00;0.62;2.80;2.20;;;28.20;30.70;;;;;;2267705;61;20388;-61
2023/08/05 08:22:35;0.00;0.00;0.62;0.00;0.00;0.62;2.53;2.00;;;28.20;30.70;;;;;;2267480;61;20425;-61
2023/08/05 08:25:19;0.00;0.00;0.62;0.00;0.00;0.62;3.20;2.43;;;28.20;30.70;;;;;;2267933;61;21063;-62
2023/08/05 08:28:04;0.00;0.00;0.62;0.00;0.00;0.62;2.73;2.00;;;28.20;30.70;;;;;;2267916;61;20829;-63
2023/08/05 08:30:54;0.00;0.00;0.62;0.00;0.00;0.62;2.90;1.93;;;28.20;30.70;;;;;;2267621;61;20363;-61
2023/08/05 08:33:38;0.00;0.00;0.62;0.00;0.00;0.62;2.97;2.20;;;28.20;30.70;;;;;;2268079;61;20463;-63
2023/08/05 08:36:25;0.00;0.00;0.62;0.00;0.00;0.62;2.63;2.00;;;28.20;30.80;;;;;;2268236;61;20360;-61
2023/08/05 08:39:10;0.00;0.00;0.62;0.00;0.00;0.62;3.33;2.70;;;28.20;30.80;;;;;;2268350;61;20394;-61
2023/08/05 08:41:55;0.00;0.00;0.62;0.00;0.00;0.62;3.70;2.37;;;28.20;30.80;;;;;;2268663;61;20784;-60
2023/08/05 08:44:41;0.00;0.00;0.62;0.00;0.00;0.62;2.73;2.30;;;28.20;30.80;;;;;;2268031;61;20911;-61
2023/08/05 08:47:27;0.00;0.00;0.62;0.00;0.00;0.62;3.43;2.17;;;28.20;30.80;;;;;;2268937;61;20363;-60
2023/08/05 08:50:13;0.00;0.00;0.62;0.00;0.00;0.62;3.27;1.90;;;28.20;30.80;;;;;;2268371;61;20472;-61
2023/08/05 08:52:59;0.00;0.00;0.62;0.00;0.00;0.62;2.73;2.30;;;28.30;30.80;;;;;;2268454;61;20367;-61
2023/08/05 08:55:44;0.00;0.00;0.62;0.00;0.00;0.62;3.03;2.30;;;28.30;30.80;;;;;;2268667;61;20385;-59
2023/08/05 08:58:29;0.00;0.00;0.62;0.00;0.00;0.62;2.50;2.00;;;28.30;30.80;;;;;;2268132;61;20906;-59
2023/08/05 09:01:18;0.00;0.00;0.62;0.00;0.00;0.62;2.63;2.10;;;28.30;30.80;;;;;;2268715;61;20437;-61
2023/08/05 09:04:06;0.00;0.00;0.62;0.00;0.00;0.62;2.60;2.10;;;28.30;30.80;;;;;;2268967;61;20417;-60
2023/08/05 09:06:52;0.00;0.00;0.62;0.00;0.00;0.62;3.13;2.47;;;28.30;30.80;;;;;;2268161;61;20421;-62
2023/08/05 09:09:38;0.00;0.00;0.62;0.00;0.00;0.62;2.30;2.10;;;28.30;30.80;;;;;;2268150;61;20788;-63
2023/08/05 09:12:23;0.00;0.00;0.62;0.00;0.00;0.62;4.50;2.23;;;28.30;30.90;;;;;;2268802;61;20390;-61
2023/08/05 09:15:13;0.00;0.00;0.62;0.00;0.00;0.62;3.30;2.77;;;28.30;30.80;;;;;;2268272;61;20455;-60
2023/08/05 09:17:58;0.00;0.00;0.62;0.00;0.00;0.62;3.07;2.33;;;28.30;30.80;;;;;;2268566;61;20795;-62
2023/08/05 09:20:43;0.00;0.00;0.62;0.00;0.00;0.62;2.87;2.10;;;28.30;30.80;;;;;;2268552;61;20359;-62
2023/08/05 09:23:28;0.00;0.00;0.62;0.00;0.00;0.62;3.00;2.30;;;28.30;30.80;;;;;;2268472;61;20378;-60
2023/08/05 09:26:24;0.00;0.00;0.62;0.00;0.00;0.62;3.03;2.20;;;28.30;30.90;;;;;;2268755;61;20570;-63
2023/08/05 09:29:21;0.00;0.00;0.62;0.00;0.00;0.62;2.67;2.10;;;28.30;31.50;;;;;;2267465;61;20798;-59
2023/08/05 09:32:07;0.00;0.00;0.62;0.00;0.00;0.62;2.73;2.10;;;28.30;30.90;;;;;;2268609;61;20807;-61
2023/08/05 09:34:54;0.00;0.00;0.62;0.00;0.00;0.62;2.67;1.90;;;28.30;30.90;;;;;;2268848;61;20371;-59
2023/08/05 09:37:39;0.00;0.00;0.62;0.00;0.00;0.62;2.20;1.93;;;28.30;31.60;;;;;;2267878;61;20422;-60
2023/08/05 09:40:26;0.00;0.00;0.62;0.00;0.00;0.62;3.60;2.50;;;28.30;30.90;;;;;;2268248;61;20366;-62
2023/08/05 09:43:13;0.00;0.00;0.62;0.00;0.00;0.62;3.27;2.37;;;28.30;30.90;;;;;;2267970;61;20766;-60
2023/08/05 09:46:00;0.00;0.00;0.62;0.00;0.00;0.62;2.53;1.77;;;28.40;31.00;;;;;;2268263;61;20371;-61
2023/08/05 09:48:45;0.00;0.00;0.62;0.00;0.00;0.62;2.10;1.70;;;28.40;31.00;;;;;;2267766;61;20383;-60
2023/08/05 09:51:30;0.00;0.00;0.62;0.00;0.00;0.62;2.50;1.77;;;28.40;31.00;;;;;;2267405;61;20363;-61
2023/08/05 09:54:23;0.00;0.00;0.62;0.00;0.00;0.62;2.40;1.87;;;28.40;31.00;;;;;;2267994;61;20367;-63
2023/08/05 09:57:09;0.00;0.00;0.62;0.00;0.00;0.62;2.80;2.00;;;28.40;31.10;;;;;;2268025;61;20355;-57
2023/08/05 09:59:59;0.00;0.00;0.62;0.00;0.00;0.62;2.40;1.80;;;28.40;31.00;;;;;;2263721;61;20423;-60
2023/08/05 10:02:45;0.00;0.00;0.62;0.00;0.00;0.62;2.90;2.13;;;28.40;31.00;;;;;;2268338;61;20399;-60
2023/08/05 10:05:30;0.00;0.00;0.62;0.00;0.00;0.62;2.30;1.77;;;28.40;31.10;;;;;;2267807;61;20363;-63
2023/08/05 10:08:19;0.00;0.00;0.62;0.00;0.00;0.62;2.27;1.77;;;28.40;31.00;;;;;;2268329;61;20747;-59
2023/08/05 10:11:04;0.00;0.00;0.62;0.00;0.00;0.62;1.87;1.50;;;28.40;31.10;;;;;;2268341;61;20409;-61
2023/08/05 10:13:53;0.00;0.00;0.62;0.00;0.00;0.62;2.10;1.50;;;28.40;31.10;;;;;;2268166;61;20434;-62
2023/08/05 10:16:39;0.00;0.00;0.62;0.00;0.00;0.62;2.90;2.07;;;28.40;31.10;;;;;;2268499;61;20363;-61
2023/08/05 10:19:28;0.00;0.00;0.62;0.00;0.00;0.62;2.27;1.83;;;28.40;31.10;;;;;;2267647;61;20395;-61
2023/08/05 10:22:12;0.00;0.00;0.62;0.00;0.00;0.62;1.90;1.50;;;28.40;31.10;;;;;;2268061;61;20929;-61
2023/08/05 10:25:00;0.00;0.00;0.62;0.00;0.00;0.62;2.00;1.60;;;28.40;31.10;;;;;;2268508;61;20386;-64
2023/08/05 10:27:45;0.00;0.00;0.62;0.00;0.00;0.62;1.97;1.23;;;28.50;31.90;;;;;;2267788;61;20451;-61
2023/08/05 10:30:30;0.00;0.00;0.62;0.00;0.00;0.62;2.33;1.63;;;28.50;31.20;;;;;;2268189;61;20481;-61
2023/08/05 10:33:16;0.00;0.00;0.62;0.00;0.00;0.62;1.90;1.60;;;28.50;31.20;;;;;;2268444;61;20891;-63
2023/08/05 10:36:05;0.00;0.00;0.62;0.00;0.00;0.62;1.80;1.50;;;28.50;31.20;;;;;;2267773;61;20394;-62
2023/08/05 10:38:50;0.00;0.00;0.62;0.00;0.00;0.62;1.90;1.60;;;28.50;31.20;;;;;;2268124;61;20437;-62
2023/08/05 10:41:36;0.00;0.00;0.62;0.00;0.00;0.62;1.93;1.47;;;28.50;31.20;;;;;;2268522;61;20359;-59
2023/08/05 10:44:21;0.00;0.00;0.62;0.00;0.00;0.62;2.20;1.50;;;28.50;31.20;;;;;;2267920;61;20366;-60
2023/08/05 10:47:06;0.00;0.00;0.62;0.00;0.00;0.62;2.00;1.37;;;28.50;31.20;;;;;;2268576;61;20390;-61
2023/08/05 10:49:57;0.00;0.00;0.62;0.00;0.00;0.62;3.10;2.30;;;28.50;31.10;;;;;;2267519;61;20379;-62
2023/08/05 10:52:42;0.00;0.00;0.62;0.00;0.00;0.62;1.93;1.33;;;28.60;31.20;;;;;;2268588;61;20367;-62